Claire — PCUG — position and weather

sailwx.info

Track history (hours):
 
Tides and Currents Weather Stations Pressure Air Temp Water Temp Dewpoint Dewpoint Depression Visibility Wind Speed Wind Dir Waves Ship Positions

Claire

Last reported at 2018-Jun-22 07:29 UTC. Time now 2018-Jun-22 07:46 UTC.
Position N 54°39' W 005°51'.

Length 90 m; draft 4.1 m.

Type: Cargo ship. MMSI: 244790234.

Date/timePositionNaut miles runAvg speedWind from/ knotsBaromVisibWave heightAir tempDewpointWater temp
2018-Jun-22 07:29N 54°39' W 005°51'3 7.0
2018-Jun-22 06:59N 54°37' W 005°55'0 0.4
2018-Jun-22 06:29N 54°37' W 005°55'0 0.0
2018-Jun-22 05:59N 54°37' W 005°55'0 0.0
2018-Jun-22 05:29N 54°37' W 005°55'0 0.0
2018-Jun-22 04:59N 54°37' W 005°55'0 0.0
2018-Jun-22 04:29N 54°37' W 005°55'0 0.0
2018-Jun-22 03:59N 54°37' W 005°55'0 0.0
2018-Jun-22 03:29N 54°37' W 005°55'0 0.0
2018-Jun-22 02:59N 54°37' W 005°55'0 0.0
2018-Jun-22 02:29N 54°37' W 005°55'0 0.0
2018-Jun-22 01:59N 54°37' W 005°55'0 0.0
2018-Jun-22 01:29N 54°37' W 005°55'0 0.0
2018-Jun-22 00:59N 54°37' W 005°55'0 0.0
2018-Jun-22 00:29N 54°37' W 005°55'0 0.0
2018-Jun-21 23:59N 54°37' W 005°55'0 0.0
2018-Jun-21 23:29N 54°37' W 005°55'0 0.0
2018-Jun-21 22:56N 54°37' W 005°55'0 0.0
2018-Jun-21 22:29N 54°37' W 005°55'0 0.0
2018-Jun-21 21:59N 54°37' W 005°55'0 0.0
2018-Jun-21 21:29N 54°37' W 005°55'0 0.0
2018-Jun-21 20:59N 54°37' W 005°55'0 0.0
2018-Jun-21 20:29N 54°37' W 005°55'0 0.0
2018-Jun-21 19:59N 54°37' W 005°55'0 0.0
2018-Jun-21 19:29N 54°37' W 005°55'0 0.0
2018-Jun-21 18:59N 54°37' W 005°55'0 0.0
2018-Jun-21 18:29N 54°37' W 005°55'0 0.0
2018-Jun-21 17:59N 54°37' W 005°55'0 0.0
2018-Jun-21 17:29N 54°37' W 005°55'0 0.0
2018-Jun-21 16:59N 54°37' W 005°55'0 0.0
2018-Jun-21 16:29N 54°37' W 005°55'0 0.0
2018-Jun-21 15:56N 54°37' W 005°55'0 0.0
2018-Jun-21 15:29N 54°37' W 005°55'0 0.0
2018-Jun-21 14:59N 54°37' W 005°55'0 0.0
2018-Jun-21 14:29N 54°37' W 005°55'0 0.0
2018-Jun-21 13:59N 54°37' W 005°55'0 0.0
2018-Jun-21 13:29N 54°37' W 005°55'0 0.0
2018-Jun-21 12:59N 54°37' W 005°55'0 0.0
2018-Jun-21 12:29N 54°37' W 005°55'0 0.0
2018-Jun-21 11:59N 54°37' W 005°55'0 0.0
2018-Jun-21 11:29N 54°37' W 005°55'0 0.0
2018-Jun-21 10:59N 54°37' W 005°55'0 0.0
2018-Jun-21 10:29N 54°37' W 005°55'0 0.0
2018-Jun-21 09:59N 54°37' W 005°55'0 0.3
2018-Jun-21 09:28N 54°37' W 005°55'2 5.1
2018-Jun-21 09:00N 54°39' W 005°52'511.1
2018-Jun-21 08:30N 54°42' W 005°45'2 4.4
2018-Jun-21 08:00N 54°43' W 005°41'1 2.2
2018-Jun-21 07:30N 54°43' W 005°39'2 4.3
2018-Jun-21 07:00N 54°43' W 005°36'2 4.1
2018-Jun-21 06:30N 54°44' W 005°32'3 6.1
2018-Jun-21 06:00N 54°42' W 005°28'5 9.8
2018-Jun-21 05:30N 54°37' W 005°24'5 9.5
2018-Jun-21 05:00N 54°33' W 005°21'5 9.5
2018-Jun-21 04:30N 54°29' W 005°18'5 9.2
2018-Jun-21 04:00N 54°24' W 005°15'5 9.1
2018-Jun-21 03:30N 54°20' W 005°12'49 8.9
2018-Jun-20 21:59N 53°43' W 004°17'4 9.3
2018-Jun-20 21:30N 53°41' W 004°10'5 9.5
2018-Jun-20 20:59N 53°39' W 004°02'510.1
2018-Jun-20 20:29N 53°37' W 003°55'511.0
2018-Jun-20 20:00N 53°35' W 003°46'611.4
2018-Jun-20 19:28N 53°33' W 003°36'511.5
2018-Jun-20 19:00N 53°33' W 003°27'611.3
2018-Jun-20 18:30N 53°32' W 003°18'510.5
2018-Jun-20 18:00N 53°32' W 003°09'611.7
2018-Jun-20 17:30N 53°28' W 003°03'611.5
2018-Jun-20 17:00N 53°22' W 002°58'3 5.0
2018-Jun-20 16:27N 53°21' W 002°54'0 0.1
2018-Jun-20 15:54N 53°21' W 002°54'0 0.0
2018-Jun-20 15:30N 53°21' W 002°54'0 0.0
2018-Jun-20 15:00N 53°21' W 002°54'0 0.0
2018-Jun-20 14:18N 53°21' W 002°54'0 0.0
2018-Jun-20 14:00N 53°21' W 002°54'0 0.0
2018-Jun-20 13:27N 53°21' W 002°54'0 0.0
2018-Jun-20 12:21N 53°21' W 002°54'0 0.0
2018-Jun-20 12:00N 53°21' W 002°54'0 0.0
2018-Jun-20 11:30N 53°21' W 002°54'0 0.0
2018-Jun-20 10:51N 53°21' W 002°54'0 0.0
2018-Jun-20 10:12N 53°21' W 002°54'0 0.0
2018-Jun-20 09:54N 53°21' W 002°54'0 0.0
2018-Jun-20 09:09N 53°21' W 002°54'0 0.0
2018-Jun-20 08:51N 53°21' W 002°54'0 0.0
2018-Jun-20 08:27N 53°21' W 002°54'0 0.0
2018-Jun-20 07:57N 53°21' W 002°54'0 0.0
2018-Jun-20 07:27N 53°21' W 002°54'0 0.0
2018-Jun-20 06:57N 53°21' W 002°54'0 0.0
2018-Jun-20 06:18N 53°21' W 002°54'0 0.0
2018-Jun-20 05:15N 53°21' W 002°54'0 0.0
2018-Jun-20 04:57N 53°21' W 002°54'0 0.0
2018-Jun-20 04:24N 53°21' W 002°54'0 0.0
2018-Jun-20 03:51N 53°21' W 002°54'0 0.0
2018-Jun-20 03:27N 53°21' W 002°54'0 0.0
2018-Jun-20 02:48N 53°21' W 002°54'0 0.0
2018-Jun-20 02:27N 53°21' W 002°54'0 0.0
2018-Jun-20 02:00N 53°21' W 002°54'0 0.0
2018-Jun-20 01:30N 53°21' W 002°54'0 0.0
2018-Jun-20 00:42N 53°21' W 002°54'0 0.0
2018-Jun-20 00:27N 53°21' W 002°54'0 0.0
2018-Jun-20 00:00N 53°21' W 002°54'0 0.0
2018-Jun-19 23:30N 53°21' W 002°54'0 0.0
2018-Jun-19 22:57N 53°21' W 002°54'0 0.0
2018-Jun-19 22:27N 53°21' W 002°54'0 0.0
2018-Jun-19 21:57N 53°21' W 002°54'0 0.0
2018-Jun-19 21:30N 53°21' W 002°54'0 0.0
2018-Jun-19 21:00N 53°21' W 002°54'0 0.0
2018-Jun-19 20:24N 53°21' W 002°54'0 0.0
2018-Jun-19 20:00N 53°21' W 002°54'0 0.0
2018-Jun-19 19:30N 53°21' W 002°54'0 0.0
2018-Jun-19 19:00N 53°21' W 002°54'0 0.0
2018-Jun-19 18:21N 53°21' W 002°54'0 0.0
2018-Jun-19 18:00N 53°21' W 002°54'0 0.0
2018-Jun-19 17:18N 53°21' W 002°54'0 0.0
2018-Jun-19 16:57N 53°21' W 002°54'0 0.0
2018-Jun-19 15:30N 53°21' W 002°54'0 0.0
2018-Jun-19 14:36N 53°21' W 002°54'0 0.0
2018-Jun-19 14:18N 53°21' W 002°54'0 0.0
2018-Jun-19 13:18N 53°21' W 002°54'0 0.0
2018-Jun-19 12:39N 53°21' W 002°54'0 0.0
2018-Jun-19 12:27N 53°21' W 002°54'0 0.0
2018-Jun-19 11:15N 53°21' W 002°54'0 0.0
2018-Jun-19 11:00N 53°21' W 002°54'0 0.0
2018-Jun-19 10:30N 53°21' W 002°54'0 0.0
2018-Jun-19 10:00N 53°21' W 002°54'0 0.0
2018-Jun-19 09:24N 53°21' W 002°54'0 0.0
2018-Jun-19 09:00N 53°21' W 002°54'0 0.0
2018-Jun-19 08:30N 53°21' W 002°54'0 0.0
2018-Jun-19 07:54N 53°21' W 002°54'0 0.0
2018-Jun-19 07:30N 53°21' W 002°54'0 0.0
2018-Jun-19 07:00N 53°21' W 002°54'0 0.0
2018-Jun-19 06:12N 53°21' W 002°54'0 0.0
2018-Jun-19 06:00N 53°21' W 002°54'0 0.0
2018-Jun-19 05:21N 53°21' W 002°54'0 0.0
2018-Jun-19 04:45N 53°21' W 002°54'0 0.0
2018-Jun-19 04:24N 53°21' W 002°54'0 0.0
2018-Jun-19 03:45N 53°21' W 002°54'0 0.0
2018-Jun-19 03:30N 53°21' W 002°54'0 0.0
2018-Jun-19 02:57N 53°21' W 002°54'0 0.0
2018-Jun-19 02:30N 53°21' W 002°54'0 0.0
2018-Jun-19 02:00N 53°21' W 002°54'0 0.0
2018-Jun-19 01:30N 53°21' W 002°54'0 0.0
2018-Jun-19 00:57N 53°21' W 002°54'0 0.0
2018-Jun-19 00:30N 53°21' W 002°54'0 0.0
2018-Jun-18 23:57N 53°21' W 002°54'0 0.0
2018-Jun-18 23:24N 53°21' W 002°54'0 0.0
2018-Jun-18 23:00N 53°21' W 002°54'0 0.0
2018-Jun-18 22:30N 53°21' W 002°54'0 0.0
2018-Jun-18 22:00N 53°21' W 002°54'0 0.0
2018-Jun-18 21:27N 53°21' W 002°54'0 0.0
2018-Jun-18 21:00N 53°21' W 002°54'0 0.0
2018-Jun-18 20:30N 53°21' W 002°54'0 0.0
2018-Jun-18 20:00N 53°21' W 002°54'0 0.0
2018-Jun-18 19:30N 53°21' W 002°54'0 0.0
2018-Jun-18 19:00N 53°21' W 002°54'0 0.0
2018-Jun-18 18:27N 53°21' W 002°54'0 0.0
2018-Jun-18 18:00N 53°21' W 002°54'0 0.0
2018-Jun-18 17:27N 53°21' W 002°54'0 0.0
2018-Jun-18 16:57N 53°21' W 002°54'0 0.0
2018-Jun-18 16:27N 53°21' W 002°54'0 0.0
2018-Jun-18 15:54N 53°21' W 002°54'0 0.0
2018-Jun-18 15:18N 53°21' W 002°54'0 0.2
2018-Jun-18 15:00N 53°21' W 002°54'1 1.0
2018-Jun-18 14:30N 53°21' W 002°55'2 3.8
2018-Jun-18 14:00N 53°22' W 002°58'3 6.3
2018-Jun-18 13:30N 53°25' W 003°01'5 9.2
2018-Jun-18 13:00N 53°29' W 003°05'4 8.4
2018-Jun-18 12:30N 53°32' W 003°10'4 8.1
2018-Jun-18 12:00N 53°31' W 003°17'4 8.5
2018-Jun-18 11:30N 53°32' W 003°24'5 9.2
2018-Jun-18 11:00N 53°31' W 003°31'4 8.5
2018-Jun-18 10:30N 53°31' W 003°39'4 8.1
2018-Jun-18 10:00N 53°31' W 003°45'4 8.6
2018-Jun-18 09:30N 53°31' W 003°53'215 7.0
2018-Jun-17 02:42N 49°57' W 004°28'29 8.6
2018-Jun-16 23:22N 49°59' W 003°43'3 7.0
2018-Jun-16 22:58N 49°59' W 003°39'3 6.6
2018-Jun-16 22:30N 49°59' W 003°34'3 6.4
2018-Jun-16 22:00N 49°60' W 003°29'3 6.2
2018-Jun-16 21:30N 49°60' W 003°24'3 6.1
2018-Jun-16 21:00N 50°00' W 003°20'3 5.9
2018-Jun-16 20:30N 50°00' W 003°15'3 6.2
2018-Jun-16 20:00N 50°00' W 003°10'3 6.3
2018-Jun-16 19:30N 50°00' W 003°05'3 6.4
2018-Jun-16 19:00N 50°01' W 003°00'3 6.2
2018-Jun-16 18:30N 50°01' W 002°56'3 6.5
2018-Jun-16 17:59N 50°01' W 002°50'4 7.3
2018-Jun-16 17:27N 50°02' W 002°45'6 8.4
2018-Jun-16 16:45N 50°04' W 002°36'105 8.9
2018-Jun-16 04:59N 50°32' E 000°02'611.2
2018-Jun-16 04:27N 50°34' E 000°11'511.0
2018-Jun-16 03:58N 50°35' E 000°19'510.8
2018-Jun-16 03:30N 50°37' E 000°27'510.4
2018-Jun-16 03:00N 50°38' E 000°35'510.0
2018-Jun-16 02:30N 50°41' E 000°41'5 9.4
2018-Jun-16 02:00N 50°44' E 000°47'4 8.7
2018-Jun-16 01:30N 50°46' E 000°53'4 8.3
2018-Jun-16 01:00N 50°49' E 000°58'4 8.0
2018-Jun-16 00:30N 50°51' E 001°03'4 7.9
2018-Jun-16 00:00N 50°54' E 001°08'4 8.0
2018-Jun-15 23:29N 50°56' E 001°13'4 8.4
2018-Jun-15 23:00N 50°59' E 001°18'6 9.4
2018-Jun-15 22:23N 51°02' E 001°25'411.2
2018-Jun-15 22:00N 51°05' E 001°31'713.3
2018-Jun-15 21:30N 51°09' E 001°39'713.5
2018-Jun-15 21:00N 51°14' E 001°46'713.3
2018-Jun-15 20:30N 51°20' E 001°51'612.6
2018-Jun-15 20:00N 51°26' E 001°55'611.9
2018-Jun-15 19:30N 51°30' E 002°02'611.2
2018-Jun-15 19:00N 51°34' E 002°08'611.0
2018-Jun-15 18:30N 51°38' E 002°14'510.6
2018-Jun-15 18:00N 51°42' E 002°20'510.1
2018-Jun-15 17:30N 51°46' E 002°25'5 9.8
2018-Jun-15 17:00N 51°49' E 002°30'5 9.5
2018-Jun-15 16:30N 51°53' E 002°35'5 9.3
2018-Jun-15 16:00N 51°57' E 002°40'4 9.2
2018-Jun-15 15:30N 52°01' E 002°44'5 9.1
2018-Jun-15 15:00N 52°04' E 002°49'5 9.1
2018-Jun-15 14:30N 52°08' E 002°53'5 9.4
2018-Jun-15 14:00N 52°11' E 002°58'5 9.8
2018-Jun-15 13:30N 52°15' E 003°03'610.6
2018-Jun-15 12:58N 52°20' E 003°08'511.2
2018-Jun-15 12:30N 52°24' E 003°14'611.5
2018-Jun-15 12:00N 52°28' E 003°19'611.8
2018-Jun-15 11:30N 52°33' E 003°25'612.0
2018-Jun-15 11:00N 52°38' E 003°32'3411.8
2018-Jun-15 08:09N 53°02' E 004°10'210.9
2018-Jun-15 07:57N 53°04' E 004°12'19 9.9
2018-Jun-15 05:59N 53°20' E 004°31'4 8.7
2018-Jun-15 05:30N 53°24' E 004°34'6 8.3
2018-Jun-15 04:50N 53°28' E 004°39'3 8.9
2018-Jun-15 04:30N 53°29' E 004°43'5 9.3
2018-Jun-15 04:00N 53°31' E 004°51'510.0
2018-Jun-15 03:29N 53°32' E 004°59'510.9
2018-Jun-15 03:00N 53°34' E 005°08'95 9.1
2018-Jun-14 16:33N 53°54' E 007°44'111.1
2018-Jun-14 16:29N 53°54' E 007°45'1010.7
2018-Jun-14 15:32N 53°51' E 008°01'112.7
2018-Jun-14 15:28N 53°51' E 008°03'613.2
2018-Jun-14 15:00N 53°46' E 008°10'713.4
2018-Jun-14 14:30N 53°42' E 008°19'612.8
2018-Jun-14 14:00N 53°38' E 008°27'611.7
2018-Jun-14 13:30N 53°33' E 008°33'4 8.5
2018-Jun-14 13:00N 53°30' E 008°30'1 1.0
2018-Jun-14 12:30N 53°29' E 008°29'0 0.0
2018-Jun-14 12:00N 53°29' E 008°29'0 0.0
2018-Jun-14 11:30N 53°29' E 008°29'0 0.0
2018-Jun-14 10:48N 53°29' E 008°29'0 0.1
2018-Jun-14 10:30N 53°29' E 008°30'1 2.4
2018-Jun-14 09:58N 53°30' E 008°31'0 0.0
2018-Jun-14 09:25N 53°30' E 008°31'0 0.0
2018-Jun-14 08:46N 53°30' E 008°31'0 0.0
2018-Jun-14 08:28N 53°30' E 008°31'0 0.0
2018-Jun-14 07:55N 53°30' E 008°31'0 0.0
2018-Jun-14 07:28N 53°30' E 008°31'0 0.0
2018-Jun-14 06:46N 53°30' E 008°31'0 0.0
2018-Jun-14 06:25N 53°30' E 008°31'0 0.0
2018-Jun-14 05:58N 53°30' E 008°31'0 0.0
2018-Jun-14 04:31N 53°30' E 008°31'0 0.1
2018-Jun-14 04:28N 53°30' E 008°31'0 0.0
2018-Jun-14 03:58N 53°30' E 008°31'0 0.0
2018-Jun-14 03:28N 53°30' E 008°31'0 0.0
2018-Jun-14 02:58N 53°30' E 008°31'0 0.0
2018-Jun-14 02:28N 53°30' E 008°31'0 0.0
2018-Jun-14 01:58N 53°30' E 008°31'0 0.0
2018-Jun-14 01:28N 53°30' E 008°31'0 0.0
2018-Jun-14 00:58N 53°30' E 008°31'0 0.0
2018-Jun-14 00:25N 53°30' E 008°31'0 0.0
2018-Jun-13 23:58N 53°30' E 008°31'0 0.0
2018-Jun-13 23:28N 53°30' E 008°31'0 0.0
2018-Jun-13 22:58N 53°30' E 008°31'0 0.0
2018-Jun-13 22:28N 53°30' E 008°31'0 0.0
2018-Jun-13 21:58N 53°30' E 008°31'0 0.0
2018-Jun-13 21:28N 53°30' E 008°31'0 0.0
2018-Jun-13 20:52N 53°30' E 008°31'0 0.0
2018-Jun-13 20:28N 53°30' E 008°31'0 0.0
2018-Jun-13 19:58N 53°30' E 008°31'0 0.0
2018-Jun-13 19:28N 53°30' E 008°31'0 0.0
2018-Jun-13 18:58N 53°30' E 008°31'0 0.0
2018-Jun-13 18:28N 53°30' E 008°31'0 0.0
2018-Jun-13 17:58N 53°30' E 008°31'0 0.0
2018-Jun-13 17:28N 53°30' E 008°31'0 0.0
2018-Jun-13 16:58N 53°30' E 008°31'0 0.0
2018-Jun-13 16:28N 53°30' E 008°31'0 0.0
2018-Jun-13 15:58N 53°30' E 008°31'0 0.0
2018-Jun-13 15:28N 53°30' E 008°31'0 0.0
2018-Jun-13 14:58N 53°30' E 008°31'0 0.0
2018-Jun-13 14:28N 53°30' E 008°31'0 0.0
2018-Jun-13 13:46N 53°30' E 008°31'0 0.0
2018-Jun-13 13:28N 53°30' E 008°31'0 0.0
2018-Jun-13 12:58N 53°30' E 008°31'0 0.0
2018-Jun-13 12:28N 53°30' E 008°31'0 0.0
2018-Jun-13 11:58N 53°30' E 008°31'0 0.0
2018-Jun-13 11:28N 53°30' E 008°31'0 0.0
2018-Jun-13 10:58N 53°30' E 008°31'0 0.0
2018-Jun-13 10:16N 53°30' E 008°31'0 0.0
2018-Jun-13 09:55N 53°30' E 008°31'0 0.0
2018-Jun-13 09:25N 53°30' E 008°31'0 0.0
2018-Jun-13 08:52N 53°30' E 008°31'0 0.0
2018-Jun-13 08:28N 53°30' E 008°31'0 0.1
2018-Jun-13 08:00N 53°30' E 008°31'4 7.3
2018-Jun-13 07:31N 53°34' E 008°33'713.5
2018-Jun-13 07:00N 53°39' E 008°25'713.4
2018-Jun-13 06:30N 53°43' E 008°17'713.2
2018-Jun-13 05:58N 53°48' E 008°08'52 6.3
2018-Jun-12 21:36N 53°32' E 006°43'111.7
2018-Jun-12 21:29N 53°31' E 006°45'510.3
2018-Jun-12 21:00N 53°27' E 006°50'1 1.0
2018-Jun-12 20:29N 53°27' E 006°50'0 0.0
2018-Jun-12 19:59N 53°27' E 006°50'0 0.0
2018-Jun-12 19:26N 53°27' E 006°50'0 0.0
2018-Jun-12 18:29N 53°27' E 006°50'0 0.0
2018-Jun-12 17:59N 53°27' E 006°50'0 0.0
2018-Jun-12 17:29N 53°27' E 006°50'0 0.0
2018-Jun-12 16:59N 53°27' E 006°50'0 0.0
2018-Jun-12 16:29N 53°27' E 006°50'0 0.0
2018-Jun-12 15:59N 53°27' E 006°50'0 0.0
2018-Jun-12 15:29N 53°27' E 006°50'0 0.0
2018-Jun-12 14:47N 53°27' E 006°50'0 0.0
2018-Jun-12 13:50N 53°27' E 006°50'0 0.0
2018-Jun-12 13:20N 53°27' E 006°50'0 0.0
2018-Jun-12 12:59N 53°27' E 006°50'0 0.0
2018-Jun-12 12:23N 53°27' E 006°50'0 0.0
2018-Jun-12 11:56N 53°27' E 006°50'0 0.0
2018-Jun-12 11:20N 53°27' E 006°50'0 0.0
2018-Jun-12 10:59N 53°27' E 006°50'0 0.0
2018-Jun-12 10:29N 53°27' E 006°50'0 0.0
2018-Jun-12 09:59N 53°27' E 006°50'0 0.0
2018-Jun-12 09:26N 53°27' E 006°50'0 0.0
2018-Jun-12 08:59N 53°27' E 006°50'0 0.0
2018-Jun-12 08:29N 53°27' E 006°50'0 0.0
2018-Jun-12 07:59N 53°27' E 006°50'  
Track history (hours):
 
Tides and Currents Weather Stations Pressure Air Temp Water Temp Dewpoint Dewpoint Depression Visibility Wind Speed Wind Dir Waves Ship Positions

Claire

Last reported at 2018-Jun-22 07:29 UTC. Time now 2018-Jun-22 07:46 UTC.
Position N 54°39' W 005°51'.

Length 90 m; draft 4.1 m.

Type: Cargo ship. MMSI: 244790234.

Date/timePositionNaut miles runAvg speedWind from/ knotsBaromVisibWave heightAir tempDewpointWater temp
2018-Jun-22 07:29N 54°39' W 005°51'3 7.0
2018-Jun-22 06:59N 54°37' W 005°55'0 0.4
2018-Jun-22 06:29N 54°37' W 005°55'0 0.0
2018-Jun-22 05:59N 54°37' W 005°55'0 0.0
2018-Jun-22 05:29N 54°37' W 005°55'0 0.0
2018-Jun-22 04:59N 54°37' W 005°55'0 0.0
2018-Jun-22 04:29N 54°37' W 005°55'0 0.0
2018-Jun-22 03:59N 54°37' W 005°55'0 0.0
2018-Jun-22 03:29N 54°37' W 005°55'0 0.0
2018-Jun-22 02:59N 54°37' W 005°55'0 0.0
2018-Jun-22 02:29N 54°37' W 005°55'0 0.0
2018-Jun-22 01:59N 54°37' W 005°55'0 0.0
2018-Jun-22 01:29N 54°37' W 005°55'0 0.0
2018-Jun-22 00:59N 54°37' W 005°55'0 0.0
2018-Jun-22 00:29N 54°37' W 005°55'0 0.0
2018-Jun-21 23:59N 54°37' W 005°55'0 0.0
2018-Jun-21 23:29N 54°37' W 005°55'0 0.0
2018-Jun-21 22:56N 54°37' W 005°55'0 0.0
2018-Jun-21 22:29N 54°37' W 005°55'0 0.0
2018-Jun-21 21:59N 54°37' W 005°55'0 0.0
2018-Jun-21 21:29N 54°37' W 005°55'0 0.0
2018-Jun-21 20:59N 54°37' W 005°55'0 0.0
2018-Jun-21 20:29N 54°37' W 005°55'0 0.0
2018-Jun-21 19:59N 54°37' W 005°55'0 0.0
2018-Jun-21 19:29N 54°37' W 005°55'0 0.0
2018-Jun-21 18:59N 54°37' W 005°55'0 0.0
2018-Jun-21 18:29N 54°37' W 005°55'0 0.0
2018-Jun-21 17:59N 54°37' W 005°55'0 0.0
2018-Jun-21 17:29N 54°37' W 005°55'0 0.0
2018-Jun-21 16:59N 54°37' W 005°55'0 0.0
2018-Jun-21 16:29N 54°37' W 005°55'0 0.0
2018-Jun-21 15:56N 54°37' W 005°55'0 0.0
2018-Jun-21 15:29N 54°37' W 005°55'0 0.0
2018-Jun-21 14:59N 54°37' W 005°55'0 0.0
2018-Jun-21 14:29N 54°37' W 005°55'0 0.0
2018-Jun-21 13:59N 54°37' W 005°55'0 0.0
2018-Jun-21 13:29N 54°37' W 005°55'0 0.0
2018-Jun-21 12:59N 54°37' W 005°55'0 0.0
2018-Jun-21 12:29N 54°37' W 005°55'0 0.0
2018-Jun-21 11:59N 54°37' W 005°55'0 0.0
2018-Jun-21 11:29N 54°37' W 005°55'0 0.0
2018-Jun-21 10:59N 54°37' W 005°55'0 0.0
2018-Jun-21 10:29N 54°37' W 005°55'0 0.0
2018-Jun-21 09:59N 54°37' W 005°55'0 0.3
2018-Jun-21 09:28N 54°37' W 005°55'2 5.1
2018-Jun-21 09:00N 54°39' W 005°52'511.1
2018-Jun-21 08:30N 54°42' W 005°45'2 4.4
2018-Jun-21 08:00N 54°43' W 005°41'1 2.2
2018-Jun-21 07:30N 54°43' W 005°39'2 4.3
2018-Jun-21 07:00N 54°43' W 005°36'2 4.1
2018-Jun-21 06:30N 54°44' W 005°32'3 6.1
2018-Jun-21 06:00N 54°42' W 005°28'5 9.8
2018-Jun-21 05:30N 54°37' W 005°24'5 9.5
2018-Jun-21 05:00N 54°33' W 005°21'5 9.5
2018-Jun-21 04:30N 54°29' W 005°18'5 9.2
2018-Jun-21 04:00N 54°24' W 005°15'5 9.1
2018-Jun-21 03:30N 54°20' W 005°12'49 8.9
2018-Jun-20 21:59N 53°43' W 004°17'4 9.3
2018-Jun-20 21:30N 53°41' W 004°10'5 9.5
2018-Jun-20 20:59N 53°39' W 004°02'510.1
2018-Jun-20 20:29N 53°37' W 003°55'511.0
2018-Jun-20 20:00N 53°35' W 003°46'611.4
2018-Jun-20 19:28N 53°33' W 003°36'511.5
2018-Jun-20 19:00N 53°33' W 003°27'611.3
2018-Jun-20 18:30N 53°32' W 003°18'510.5
2018-Jun-20 18:00N 53°32' W 003°09'611.7
2018-Jun-20 17:30N 53°28' W 003°03'611.5
2018-Jun-20 17:00N 53°22' W 002°58'3 5.0
2018-Jun-20 16:27N 53°21' W 002°54'0 0.1
2018-Jun-20 15:54N 53°21' W 002°54'0 0.0
2018-Jun-20 15:30N 53°21' W 002°54'0 0.0
2018-Jun-20 15:00N 53°21' W 002°54'0 0.0
2018-Jun-20 14:18N 53°21' W 002°54'0 0.0
2018-Jun-20 14:00N 53°21' W 002°54'0 0.0
2018-Jun-20 13:27N 53°21' W 002°54'0 0.0
2018-Jun-20 12:21N 53°21' W 002°54'0 0.0
2018-Jun-20 12:00N 53°21' W 002°54'0 0.0
2018-Jun-20 11:30N 53°21' W 002°54'0 0.0
2018-Jun-20 10:51N 53°21' W 002°54'0 0.0
2018-Jun-20 10:12N 53°21' W 002°54'0 0.0
2018-Jun-20 09:54N 53°21' W 002°54'0 0.0
2018-Jun-20 09:09N 53°21' W 002°54'0 0.0
2018-Jun-20 08:51N 53°21' W 002°54'0 0.0
2018-Jun-20 08:27N 53°21' W 002°54'0 0.0
2018-Jun-20 07:57N 53°21' W 002°54'0 0.0
2018-Jun-20 07:27N 53°21' W 002°54'0 0.0
2018-Jun-20 06:57N 53°21' W 002°54'0 0.0
2018-Jun-20 06:18N 53°21' W 002°54'0 0.0
2018-Jun-20 05:15N 53°21' W 002°54'0 0.0
2018-Jun-20 04:57N 53°21' W 002°54'0 0.0
2018-Jun-20 04:24N 53°21' W 002°54'0 0.0
2018-Jun-20 03:51N 53°21' W 002°54'0 0.0
2018-Jun-20 03:27N 53°21' W 002°54'0 0.0
2018-Jun-20 02:48N 53°21' W 002°54'0 0.0
2018-Jun-20 02:27N 53°21' W 002°54'0 0.0
2018-Jun-20 02:00N 53°21' W 002°54'0 0.0
2018-Jun-20 01:30N 53°21' W 002°54'0 0.0
2018-Jun-20 00:42N 53°21' W 002°54'0 0.0
2018-Jun-20 00:27N 53°21' W 002°54'0 0.0
2018-Jun-20 00:00N 53°21' W 002°54'0 0.0
2018-Jun-19 23:30N 53°21' W 002°54'0 0.0
2018-Jun-19 22:57N 53°21' W 002°54'0 0.0
2018-Jun-19 22:27N 53°21' W 002°54'0 0.0
2018-Jun-19 21:57N 53°21' W 002°54'0 0.0
2018-Jun-19 21:30N 53°21' W 002°54'0 0.0
2018-Jun-19 21:00N 53°21' W 002°54'0 0.0
2018-Jun-19 20:24N 53°21' W 002°54'0 0.0
2018-Jun-19 20:00N 53°21' W 002°54'0 0.0
2018-Jun-19 19:30N 53°21' W 002°54'0 0.0
2018-Jun-19 19:00N 53°21' W 002°54'0 0.0
2018-Jun-19 18:21N 53°21' W 002°54'0 0.0
2018-Jun-19 18:00N 53°21' W 002°54'0 0.0
2018-Jun-19 17:18N 53°21' W 002°54'0 0.0
2018-Jun-19 16:57N 53°21' W 002°54'0 0.0
2018-Jun-19 15:30N 53°21' W 002°54'0 0.0
2018-Jun-19 14:36N 53°21' W 002°54'0 0.0
2018-Jun-19 14:18N 53°21' W 002°54'0 0.0
2018-Jun-19 13:18N 53°21' W 002°54'0 0.0
2018-Jun-19 12:39N 53°21' W 002°54'0 0.0
2018-Jun-19 12:27N 53°21' W 002°54'0 0.0
2018-Jun-19 11:15N 53°21' W 002°54'0 0.0
2018-Jun-19 11:00N 53°21' W 002°54'0 0.0
2018-Jun-19 10:30N 53°21' W 002°54'0 0.0
2018-Jun-19 10:00N 53°21' W 002°54'0 0.0
2018-Jun-19 09:24N 53°21' W 002°54'0 0.0
2018-Jun-19 09:00N 53°21' W 002°54'0 0.0
2018-Jun-19 08:30N 53°21' W 002°54'0 0.0
2018-Jun-19 07:54N 53°21' W 002°54'0 0.0
2018-Jun-19 07:30N 53°21' W 002°54'0 0.0
2018-Jun-19 07:00N 53°21' W 002°54'0 0.0
2018-Jun-19 06:12N 53°21' W 002°54'0 0.0
2018-Jun-19 06:00N 53°21' W 002°54'0 0.0
2018-Jun-19 05:21N 53°21' W 002°54'0 0.0
2018-Jun-19 04:45N 53°21' W 002°54'0 0.0
2018-Jun-19 04:24N 53°21' W 002°54'0 0.0
2018-Jun-19 03:45N 53°21' W 002°54'0 0.0
2018-Jun-19 03:30N 53°21' W 002°54'0 0.0
2018-Jun-19 02:57N 53°21' W 002°54'0 0.0
2018-Jun-19 02:30N 53°21' W 002°54'0 0.0
2018-Jun-19 02:00N 53°21' W 002°54'0 0.0
2018-Jun-19 01:30N 53°21' W 002°54'0 0.0
2018-Jun-19 00:57N 53°21' W 002°54'0 0.0
2018-Jun-19 00:30N 53°21' W 002°54'0 0.0
2018-Jun-18 23:57N 53°21' W 002°54'0 0.0
2018-Jun-18 23:24N 53°21' W 002°54'0 0.0
2018-Jun-18 23:00N 53°21' W 002°54'0 0.0
2018-Jun-18 22:30N 53°21' W 002°54'0 0.0
2018-Jun-18 22:00N 53°21' W 002°54'0 0.0
2018-Jun-18 21:27N 53°21' W 002°54'0 0.0
2018-Jun-18 21:00N 53°21' W 002°54'0 0.0
2018-Jun-18 20:30N 53°21' W 002°54'0 0.0
2018-Jun-18 20:00N 53°21' W 002°54'0 0.0
2018-Jun-18 19:30N 53°21' W 002°54'0 0.0
2018-Jun-18 19:00N 53°21' W 002°54'0 0.0
2018-Jun-18 18:27N 53°21' W 002°54'0 0.0
2018-Jun-18 18:00N 53°21' W 002°54'0 0.0
2018-Jun-18 17:27N 53°21' W 002°54'0 0.0
2018-Jun-18 16:57N 53°21' W 002°54'0 0.0
2018-Jun-18 16:27N 53°21' W 002°54'0 0.0
2018-Jun-18 15:54N 53°21' W 002°54'0 0.0
2018-Jun-18 15:18N 53°21' W 002°54'0 0.2
2018-Jun-18 15:00N 53°21' W 002°54'1 1.0
2018-Jun-18 14:30N 53°21' W 002°55'2 3.8
2018-Jun-18 14:00N 53°22' W 002°58'3 6.3
2018-Jun-18 13:30N 53°25' W 003°01'5 9.2
2018-Jun-18 13:00N 53°29' W 003°05'4 8.4
2018-Jun-18 12:30N 53°32' W 003°10'4 8.1
2018-Jun-18 12:00N 53°31' W 003°17'4 8.5
2018-Jun-18 11:30N 53°32' W 003°24'5 9.2
2018-Jun-18 11:00N 53°31' W 003°31'4 8.5
2018-Jun-18 10:30N 53°31' W 003°39'4 8.1
2018-Jun-18 10:00N 53°31' W 003°45'4 8.6
2018-Jun-18 09:30N 53°31' W 003°53'215 7.0
2018-Jun-17 02:42N 49°57' W 004°28'29 8.6
2018-Jun-16 23:22N 49°59' W 003°43'3 7.0
2018-Jun-16 22:58N 49°59' W 003°39'3 6.6
2018-Jun-16 22:30N 49°59' W 003°34'3 6.4
2018-Jun-16 22:00N 49°60' W 003°29'3 6.2
2018-Jun-16 21:30N 49°60' W 003°24'3 6.1
2018-Jun-16 21:00N 50°00' W 003°20'3 5.9
2018-Jun-16 20:30N 50°00' W 003°15'3 6.2
2018-Jun-16 20:00N 50°00' W 003°10'3 6.3
2018-Jun-16 19:30N 50°00' W 003°05'3 6.4
2018-Jun-16 19:00N 50°01' W 003°00'3 6.2
2018-Jun-16 18:30N 50°01' W 002°56'3 6.5
2018-Jun-16 17:59N 50°01' W 002°50'4 7.3
2018-Jun-16 17:27N 50°02' W 002°45'6 8.4
2018-Jun-16 16:45N 50°04' W 002°36'105 8.9
2018-Jun-16 04:59N 50°32' E 000°02'611.2
2018-Jun-16 04:27N 50°34' E 000°11'511.0
2018-Jun-16 03:58N 50°35' E 000°19'510.8
2018-Jun-16 03:30N 50°37' E 000°27'510.4
2018-Jun-16 03:00N 50°38' E 000°35'510.0
2018-Jun-16 02:30N 50°41' E 000°41'5 9.4
2018-Jun-16 02:00N 50°44' E 000°47'4 8.7
2018-Jun-16 01:30N 50°46' E 000°53'4 8.3
2018-Jun-16 01:00N 50°49' E 000°58'4 8.0
2018-Jun-16 00:30N 50°51' E 001°03'4 7.9
2018-Jun-16 00:00N 50°54' E 001°08'4 8.0
2018-Jun-15 23:29N 50°56' E 001°13'4 8.4
2018-Jun-15 23:00N 50°59' E 001°18'6 9.4
2018-Jun-15 22:23N 51°02' E 001°25'411.2
2018-Jun-15 22:00N 51°05' E 001°31'713.3
2018-Jun-15 21:30N 51°09' E 001°39'713.5
2018-Jun-15 21:00N 51°14' E 001°46'713.3
2018-Jun-15 20:30N 51°20' E 001°51'612.6
2018-Jun-15 20:00N 51°26' E 001°55'611.9
2018-Jun-15 19:30N 51°30' E 002°02'611.2
2018-Jun-15 19:00N 51°34' E 002°08'611.0
2018-Jun-15 18:30N 51°38' E 002°14'510.6
2018-Jun-15 18:00N 51°42' E 002°20'510.1
2018-Jun-15 17:30N 51°46' E 002°25'5 9.8
2018-Jun-15 17:00N 51°49' E 002°30'5 9.5
2018-Jun-15 16:30N 51°53' E 002°35'5 9.3
2018-Jun-15 16:00N 51°57' E 002°40'4 9.2
2018-Jun-15 15:30N 52°01' E 002°44'5 9.1
2018-Jun-15 15:00N 52°04' E 002°49'5 9.1
2018-Jun-15 14:30N 52°08' E 002°53'5 9.4
2018-Jun-15 14:00N 52°11' E 002°58'5 9.8
2018-Jun-15 13:30N 52°15' E 003°03'610.6
2018-Jun-15 12:58N 52°20' E 003°08'511.2
2018-Jun-15 12:30N 52°24' E 003°14'611.5
2018-Jun-15 12:00N 52°28' E 003°19'611.8
2018-Jun-15 11:30N 52°33' E 003°25'612.0
2018-Jun-15 11:00N 52°38' E 003°32'3411.8
2018-Jun-15 08:09N 53°02' E 004°10'210.9
2018-Jun-15 07:57N 53°04' E 004°12'19 9.9
2018-Jun-15 05:59N 53°20' E 004°31'4 8.7
2018-Jun-15 05:30N 53°24' E 004°34'6 8.3
2018-Jun-15 04:50N 53°28' E 004°39'3 8.9
2018-Jun-15 04:30N 53°29' E 004°43'5 9.3
2018-Jun-15 04:00N 53°31' E 004°51'510.0
2018-Jun-15 03:29N 53°32' E 004°59'510.9
2018-Jun-15 03:00N 53°34' E 005°08'95 9.1
2018-Jun-14 16:33N 53°54' E 007°44'111.1
2018-Jun-14 16:29N 53°54' E 007°45'1010.7
2018-Jun-14 15:32N 53°51' E 008°01'112.7
2018-Jun-14 15:28N 53°51' E 008°03'613.2
2018-Jun-14 15:00N 53°46' E 008°10'713.4
2018-Jun-14 14:30N 53°42' E 008°19'612.8
2018-Jun-14 14:00N 53°38' E 008°27'611.7
2018-Jun-14 13:30N 53°33' E 008°33'4 8.5
2018-Jun-14 13:00N 53°30' E 008°30'1 1.0
2018-Jun-14 12:30N 53°29' E 008°29'0 0.0
2018-Jun-14 12:00N 53°29' E 008°29'0 0.0
2018-Jun-14 11:30N 53°29' E 008°29'0 0.0
2018-Jun-14 10:48N 53°29' E 008°29'0 0.1
2018-Jun-14 10:30N 53°29' E 008°30'1 2.4
2018-Jun-14 09:58N 53°30' E 008°31'0 0.0
2018-Jun-14 09:25N 53°30' E 008°31'0 0.0
2018-Jun-14 08:46N 53°30' E 008°31'0 0.0
2018-Jun-14 08:28N 53°30' E 008°31'0 0.0
2018-Jun-14 07:55N 53°30' E 008°31'0 0.0
2018-Jun-14 07:28N 53°30' E 008°31'0 0.0
2018-Jun-14 06:46N 53°30' E 008°31'0 0.0
2018-Jun-14 06:25N 53°30' E 008°31'0 0.0
2018-Jun-14 05:58N 53°30' E 008°31'0 0.0
2018-Jun-14 04:31N 53°30' E 008°31'0 0.1
2018-Jun-14 04:28N 53°30' E 008°31'0 0.0
2018-Jun-14 03:58N 53°30' E 008°31'0 0.0
2018-Jun-14 03:28N 53°30' E 008°31'0 0.0
2018-Jun-14 02:58N 53°30' E 008°31'0 0.0
2018-Jun-14 02:28N 53°30' E 008°31'0 0.0
2018-Jun-14 01:58N 53°30' E 008°31'0 0.0
2018-Jun-14 01:28N 53°30' E 008°31'0 0.0
2018-Jun-14 00:58N 53°30' E 008°31'0 0.0
2018-Jun-14 00:25N 53°30' E 008°31'0 0.0
2018-Jun-13 23:58N 53°30' E 008°31'0 0.0
2018-Jun-13 23:28N 53°30' E 008°31'0 0.0
2018-Jun-13 22:58N 53°30' E 008°31'0 0.0
2018-Jun-13 22:28N 53°30' E 008°31'0 0.0
2018-Jun-13 21:58N 53°30' E 008°31'0 0.0
2018-Jun-13 21:28N 53°30' E 008°31'0 0.0
2018-Jun-13 20:52N 53°30' E 008°31'0 0.0
2018-Jun-13 20:28N 53°30' E 008°31'0 0.0
2018-Jun-13 19:58N 53°30' E 008°31'0 0.0
2018-Jun-13 19:28N 53°30' E 008°31'0 0.0
2018-Jun-13 18:58N 53°30' E 008°31'0 0.0
2018-Jun-13 18:28N 53°30' E 008°31'0 0.0
2018-Jun-13 17:58N 53°30' E 008°31'0 0.0
2018-Jun-13 17:28N 53°30' E 008°31'0 0.0
2018-Jun-13 16:58N 53°30' E 008°31'0 0.0
2018-Jun-13 16:28N 53°30' E 008°31'0 0.0
2018-Jun-13 15:58N 53°30' E 008°31'0 0.0
2018-Jun-13 15:28N 53°30' E 008°31'0 0.0
2018-Jun-13 14:58N 53°30' E 008°31'0 0.0
2018-Jun-13 14:28N 53°30' E 008°31'0 0.0
2018-Jun-13 13:46N 53°30' E 008°31'0 0.0
2018-Jun-13 13:28N 53°30' E 008°31'0 0.0
2018-Jun-13 12:58N 53°30' E 008°31'0 0.0
2018-Jun-13 12:28N 53°30' E 008°31'0 0.0
2018-Jun-13 11:58N 53°30' E 008°31'0 0.0
2018-Jun-13 11:28N 53°30' E 008°31'0 0.0
2018-Jun-13 10:58N 53°30' E 008°31'0 0.0
2018-Jun-13 10:16N 53°30' E 008°31'0 0.0
2018-Jun-13 09:55N 53°30' E 008°31'0 0.0
2018-Jun-13 09:25N 53°30' E 008°31'0 0.0
2018-Jun-13 08:52N 53°30' E 008°31'0 0.0
2018-Jun-13 08:28N 53°30' E 008°31'0 0.1
2018-Jun-13 08:00N 53°30' E 008°31'4 7.3
2018-Jun-13 07:31N 53°34' E 008°33'713.5
2018-Jun-13 07:00N 53°39' E 008°25'713.4
2018-Jun-13 06:30N 53°43' E 008°17'713.2
2018-Jun-13 05:58N 53°48' E 008°08'52 6.3
2018-Jun-12 21:36N 53°32' E 006°43'111.7
2018-Jun-12 21:29N 53°31' E 006°45'510.3
2018-Jun-12 21:00N 53°27' E 006°50'1 1.0
2018-Jun-12 20:29N 53°27' E 006°50'0 0.0
2018-Jun-12 19:59N 53°27' E 006°50'0 0.0
2018-Jun-12 19:26N 53°27' E 006°50'0 0.0
2018-Jun-12 18:29N 53°27' E 006°50'0 0.0
2018-Jun-12 17:59N 53°27' E 006°50'0 0.0
2018-Jun-12 17:29N 53°27' E 006°50'0 0.0
2018-Jun-12 16:59N 53°27' E 006°50'0 0.0
2018-Jun-12 16:29N 53°27' E 006°50'0 0.0
2018-Jun-12 15:59N 53°27' E 006°50'0 0.0
2018-Jun-12 15:29N 53°27' E 006°50'0 0.0
2018-Jun-12 14:47N 53°27' E 006°50'0 0.0
2018-Jun-12 13:50N 53°27' E 006°50'0 0.0
2018-Jun-12 13:20N 53°27' E 006°50'0 0.0
2018-Jun-12 12:59N 53°27' E 006°50'0 0.0
2018-Jun-12 12:23N 53°27' E 006°50'0 0.0
2018-Jun-12 11:56N 53°27' E 006°50'0 0.0
2018-Jun-12 11:20N 53°27' E 006°50'0 0.0
2018-Jun-12 10:59N 53°27' E 006°50'0 0.0
2018-Jun-12 10:29N 53°27' E 006°50'0 0.0
2018-Jun-12 09:59N 53°27' E 006°50'0 0.0
2018-Jun-12 09:26N 53°27' E 006°50'0 0.0
2018-Jun-12 08:59N 53°27' E 006°50'0 0.0
2018-Jun-12 08:29N 53°27' E 006°50'0 0.0
2018-Jun-12 07:59N 53°27' E 006°50'  

Dump ship's entire track history